createdAt,value
2022-07-25T00:01:06.899Z,4.57
2022-07-25T00:03:09.384Z,4.60
2022-07-25T00:05:12.929Z,4.73
2022-07-25T00:07:15.856Z,4.53
2022-07-25T00:09:17.940Z,5.00
2022-07-25T00:11:19.787Z,4.50
2022-07-25T00:13:21.554Z,4.83
2022-07-25T00:15:23.393Z,5.10
2022-07-25T00:17:25.320Z,4.60
2022-07-25T00:19:27.390Z,5.07
2022-07-25T00:21:29.633Z,4.37
2022-07-25T00:23:31.956Z,4.83
2022-07-25T00:25:33.847Z,4.70
2022-07-25T00:27:35.600Z,5.37
2022-07-25T00:29:37.453Z,4.90
2022-07-25T00:31:39.290Z,4.37
2022-07-25T00:33:41.226Z,4.70
2022-07-25T00:35:43.649Z,4.50
2022-07-25T00:37:45.431Z,5.13
2022-07-25T00:39:47.289Z,4.83
2022-07-25T00:41:49.172Z,4.63
2022-07-25T00:43:51.277Z,4.83
2022-07-25T00:45:53.050Z,4.80
2022-07-25T00:47:55.005Z,5.10
2022-07-25T00:49:56.948Z,4.43
2022-07-25T00:51:58.871Z,5.13
2022-07-25T00:54:01.162Z,4.90
2022-07-25T00:56:04.028Z,4.77
2022-07-25T00:58:05.959Z,4.70
2022-07-25T01:00:11.583Z,4.57
2022-07-25T01:02:13.566Z,4.77
2022-07-25T01:04:16.112Z,5.27
2022-07-25T01:06:18.578Z,6.13
2022-07-25T01:08:21.654Z,5.07
2022-07-25T01:10:23.702Z,5.20
2022-07-25T01:12:25.791Z,5.17
2022-07-25T01:14:27.615Z,4.60
2022-07-25T01:16:29.389Z,4.90
2022-07-25T01:18:31.564Z,5.13
2022-07-25T01:20:33.632Z,5.20
2022-07-25T01:22:35.382Z,4.93
2022-07-25T01:24:38.932Z,4.93
2022-07-25T01:26:40.980Z,4.97
2022-07-25T01:28:42.796Z,4.30
2022-07-25T01:30:44.984Z,5.20
2022-07-25T01:32:47.080Z,5.27
2022-07-25T01:34:48.835Z,5.20
2022-07-25T01:36:50.618Z,4.70
2022-07-25T01:38:54.106Z,5.33
2022-07-25T01:40:56.123Z,4.70
2022-07-25T01:43:00.300Z,4.73
2022-07-25T01:45:04.204Z,4.70
2022-07-25T01:47:06.139Z,4.93
2022-07-25T01:49:08.827Z,5.27
2022-07-25T01:51:11.211Z,5.57
2022-07-25T01:53:13.122Z,5.10
2022-07-25T01:55:15.099Z,4.60
2022-07-25T01:57:17.066Z,5.20
2022-07-25T01:59:19.305Z,5.00
2022-07-25T02:01:21.661Z,5.10
2022-07-25T02:03:32.905Z,5.10
2022-07-25T02:05:34.987Z,4.73
2022-07-25T02:07:37.313Z,5.03
2022-07-25T02:09:40.004Z,4.87
2022-07-25T02:11:41.874Z,5.17
2022-07-25T02:13:44.620Z,5.30
2022-07-25T02:15:46.677Z,4.93
2022-07-25T02:17:48.398Z,5.10
2022-07-25T02:19:50.268Z,4.73
2022-07-25T02:21:52.081Z,4.83
2022-07-25T02:23:53.996Z,4.63
2022-07-25T02:25:55.779Z,5.10
2022-07-25T02:27:57.544Z,5.10
2022-07-25T02:29:59.303Z,5.10
2022-07-25T02:32:01.042Z,5.13
2022-07-25T02:34:02.962Z,5.07
2022-07-25T02:36:05.259Z,4.57
2022-07-25T02:38:07.753Z,5.20
2022-07-25T02:40:10.319Z,5.70
2022-07-25T02:42:12.201Z,4.77
2022-07-25T02:44:13.993Z,5.03
2022-07-25T02:46:15.854Z,5.33
2022-07-25T02:48:17.814Z,5.03
2022-07-25T02:50:19.720Z,5.23
2022-07-25T02:52:21.457Z,4.50
2022-07-25T02:54:23.384Z,5.27
2022-07-25T02:56:25.897Z,5.40
2022-07-25T02:58:28.766Z,5.30
2022-07-25T03:00:31.028Z,5.30
2022-07-25T03:02:32.985Z,5.17
2022-07-25T03:04:34.939Z,5.30
2022-07-25T03:06:36.801Z,6.60
2022-07-25T03:08:38.584Z,4.90
2022-07-25T03:10:40.404Z,5.60
2022-07-25T03:12:43.038Z,4.83
2022-07-25T03:14:44.793Z,4.97
2022-07-25T03:16:46.574Z,5.03
2022-07-25T03:18:48.450Z,5.57
2022-07-25T03:20:50.225Z,5.57
2022-07-25T03:22:52.103Z,5.17
2022-07-25T03:24:53.980Z,4.80
2022-07-25T03:26:55.908Z,5.30
2022-07-25T03:28:57.772Z,5.60
2022-07-25T03:30:59.621Z,5.33
2022-07-25T03:33:01.492Z,5.13
2022-07-25T03:35:03.376Z,5.57
2022-07-25T03:37:05.776Z,5.60
2022-07-25T03:39:07.772Z,5.20
2022-07-25T03:41:09.558Z,5.10
2022-07-25T03:43:11.394Z,5.47
2022-07-25T03:45:13.296Z,5.50
2022-07-25T03:47:20.690Z,5.63
2022-07-25T03:49:22.792Z,5.20
2022-07-25T03:51:24.635Z,5.37
2022-07-25T03:53:26.404Z,5.20
2022-07-25T03:55:28.619Z,5.67
2022-07-25T03:57:30.422Z,5.50
2022-07-25T03:59:32.277Z,5.50
2022-07-25T04:01:34.675Z,4.67
2022-07-25T04:03:36.668Z,4.77
2022-07-25T04:05:38.541Z,5.20
2022-07-25T04:07:40.288Z,5.30
2022-07-25T04:09:42.352Z,5.17
2022-07-25T04:11:44.391Z,5.60
2022-07-25T04:13:46.403Z,5.77
2022-07-25T04:15:48.154Z,5.53
2022-07-25T04:17:49.947Z,5.60
2022-07-25T04:19:52.149Z,4.50
2022-07-25T04:21:56.682Z,5.03
2022-07-25T04:23:58.873Z,5.40
2022-07-25T04:26:00.915Z,5.90
2022-07-25T04:28:02.828Z,4.87
2022-07-25T04:30:04.973Z,5.60
2022-07-25T04:32:07.154Z,5.40
2022-07-25T04:34:09.233Z,5.37
2022-07-25T04:36:11.419Z,5.70
2022-07-25T04:38:13.209Z,4.77
2022-07-25T04:40:15.187Z,6.57
2022-07-25T04:42:17.014Z,5.90
2022-07-25T04:44:18.825Z,5.43
2022-07-25T04:46:21.691Z,5.30
2022-07-25T04:48:23.974Z,5.17
2022-07-25T04:50:25.853Z,5.30
2022-07-25T04:52:27.689Z,5.30
2022-07-25T04:54:29.823Z,5.60
2022-07-25T04:56:31.857Z,5.60
2022-07-25T04:58:33.867Z,5.70
2022-07-25T05:00:35.789Z,5.33
2022-07-25T05:02:38.311Z,5.50
2022-07-25T05:04:45.054Z,5.60
2022-07-25T05:06:47.595Z,5.37
2022-07-25T05:08:49.402Z,5.63
2022-07-25T05:10:51.237Z,5.03
2022-07-25T05:12:54.437Z,5.37
2022-07-25T05:14:56.777Z,6.00
2022-07-25T05:16:58.650Z,5.80
2022-07-25T05:19:00.593Z,5.30
2022-07-25T05:21:02.340Z,5.60
2022-07-25T05:23:04.100Z,6.20
2022-07-25T05:25:09.834Z,6.33
2022-07-25T05:27:11.691Z,6.00
2022-07-25T05:29:14.079Z,5.77
2022-07-25T05:31:16.425Z,5.73
2022-07-25T05:33:18.174Z,5.50
2022-07-25T05:35:20.035Z,5.40
2022-07-25T05:37:21.939Z,5.23
2022-07-25T05:39:23.771Z,5.90
2022-07-25T05:41:26.035Z,6.03
2022-07-25T05:43:27.829Z,5.47
2022-07-25T05:45:30.077Z,5.70
2022-07-25T05:47:31.854Z,6.03
2022-07-25T05:49:34.293Z,5.60
2022-07-25T05:51:36.030Z,5.70
2022-07-25T05:53:40.067Z,5.83
2022-07-25T05:55:41.905Z,5.43
2022-07-25T05:57:43.649Z,4.90
2022-07-25T05:59:45.530Z,5.60
2022-07-25T06:01:47.583Z,5.83
2022-07-25T06:03:49.443Z,6.27
2022-07-25T06:05:51.156Z,5.60
2022-07-25T06:07:53.031Z,5.80
2022-07-25T06:09:54.850Z,6.50
2022-07-25T06:12:00.306Z,6.13
2022-07-25T06:14:02.615Z,5.87
2022-07-25T06:16:04.787Z,5.63
2022-07-25T06:18:06.848Z,5.57
2022-07-25T06:20:09.128Z,6.53
2022-07-25T06:22:11.393Z,6.20
2022-07-25T06:24:13.262Z,6.90
2022-07-25T06:26:15.212Z,5.93
2022-07-25T06:28:18.158Z,7.53
2022-07-25T06:30:21.647Z,6.63
2022-07-25T06:32:23.448Z,6.70
2022-07-25T06:34:28.614Z,6.60
2022-07-25T06:36:32.754Z,6.30
2022-07-25T06:38:35.113Z,6.43
2022-07-25T06:40:36.952Z,6.57
2022-07-25T06:42:40.476Z,6.60
2022-07-25T06:44:42.244Z,6.53
2022-07-25T06:46:44.066Z,6.87
2022-07-25T06:48:45.893Z,7.83
2022-07-25T06:50:47.711Z,5.83
2022-07-25T06:52:49.879Z,6.37
2022-07-25T06:54:51.719Z,6.70
2022-07-25T06:56:53.524Z,6.50
2022-07-25T06:58:55.304Z,6.63
2022-07-25T07:00:57.179Z,6.50
2022-07-25T07:03:02.537Z,6.10
2022-07-25T07:05:04.729Z,6.03
2022-07-25T07:07:06.477Z,7.47
2022-07-25T07:09:08.293Z,6.60
2022-07-25T07:11:10.130Z,6.22
2022-07-25T07:13:14.037Z,6.95
2022-07-25T07:15:16.583Z,6.63
2022-07-25T07:17:18.621Z,6.70
2022-07-25T07:19:20.451Z,6.50
2022-07-25T07:21:22.322Z,7.43
2022-07-25T07:23:24.666Z,7.00
2022-07-25T07:25:28.342Z,6.50
2022-07-25T07:27:30.405Z,6.80
2022-07-25T07:29:32.155Z,7.78
2022-07-25T07:31:34.041Z,7.03
2022-07-25T07:33:37.933Z,6.75
2022-07-25T07:35:40.277Z,6.75
2022-07-25T07:37:43.779Z,6.97
2022-07-25T07:39:45.683Z,8.40
2022-07-25T07:41:47.421Z,6.77
2022-07-25T07:43:49.176Z,6.03
2022-07-25T07:45:50.965Z,6.45
2022-07-25T07:47:54.637Z,6.55
2022-07-25T07:49:56.400Z,6.38
2022-07-25T07:51:58.230Z,6.57
2022-07-25T07:54:18.896Z,6.03
2022-07-25T07:56:20.729Z,6.55
2022-07-25T07:58:22.531Z,5.88
2022-07-25T08:00:24.851Z,6.82
2022-07-25T08:02:27.058Z,6.40
2022-07-25T08:04:29.608Z,6.75
2022-07-25T08:06:31.556Z,6.00
2022-07-25T08:08:33.466Z,5.82
2022-07-25T08:10:38.725Z,6.10
2022-07-25T08:12:42.117Z,6.47
2022-07-25T08:14:43.839Z,6.30
2022-07-25T08:16:45.621Z,7.28
2022-07-25T08:18:47.453Z,6.43
2022-07-25T08:20:50.209Z,6.40
2022-07-25T08:22:56.261Z,6.68
2022-07-25T08:24:58.524Z,7.63
2022-07-25T08:27:00.305Z,6.25
2022-07-25T08:29:18.122Z,6.10
2022-07-25T08:31:21.411Z,6.60
2022-07-25T08:33:23.305Z,6.95
2022-07-25T08:35:26.036Z,7.45
2022-07-25T08:37:28.392Z,6.47
2022-07-25T08:39:30.144Z,6.43
2022-07-25T08:41:33.989Z,6.10
2022-07-25T08:43:37.949Z,6.95
2022-07-25T08:45:54.368Z,6.40
2022-07-25T08:47:56.775Z,6.68
2022-07-25T08:50:03.880Z,6.32
2022-07-25T08:52:08.716Z,6.85
2022-07-25T08:54:11.026Z,6.78
2022-07-25T08:56:18.874Z,6.53
2022-07-25T08:58:22.655Z,8.35
2022-07-25T09:00:28.920Z,6.53
2022-07-25T09:02:30.798Z,6.38
2022-07-25T09:04:36.057Z,6.72
2022-07-25T09:06:37.900Z,6.45
2022-07-25T09:08:54.406Z,6.70
2022-07-25T09:10:56.395Z,7.05
2022-07-25T09:13:01.918Z,6.30
2022-07-25T09:15:04.298Z,6.68
2022-07-25T09:17:22.171Z,6.25
2022-07-25T09:19:26.493Z,6.30
2022-07-25T09:21:28.261Z,6.47
2022-07-25T09:23:36.364Z,6.80
2022-07-25T09:25:39.975Z,6.45
2022-07-25T09:27:41.893Z,6.70
2022-07-25T09:29:44.681Z,6.25
2022-07-25T09:31:47.333Z,6.60
2022-07-25T09:33:59.450Z,7.55
2022-07-25T09:36:10.926Z,5.85
2022-07-25T09:38:15.327Z,6.20
2022-07-25T09:40:17.276Z,7.10
2022-07-25T09:42:26.964Z,6.40
2022-07-25T09:44:32.239Z,6.50
2022-07-25T09:46:36.965Z,6.32
2022-07-25T09:48:44.063Z,6.47
2022-07-25T09:50:45.937Z,6.18
2022-07-25T09:52:52.190Z,6.05
2022-07-25T09:54:56.622Z,5.97
2022-07-25T09:56:58.398Z,5.78
2022-07-25T09:59:01.461Z,5.72
2022-07-25T10:01:07.371Z,5.97
2022-07-25T10:03:12.375Z,5.40
2022-07-25T10:05:35.949Z,6.10
2022-07-25T10:07:39.856Z,5.35
2022-07-25T10:09:50.919Z,5.50
2022-07-25T10:12:15.794Z,5.65
2022-07-25T10:14:21.742Z,6.07
2022-07-25T10:16:26.243Z,6.00
2022-07-25T10:18:30.172Z,5.78
2022-07-25T10:20:31.961Z,6.40
2022-07-25T10:23:00.585Z,5.60
2022-07-25T10:25:18.669Z,5.75
2022-07-25T10:27:24.728Z,5.45
2022-07-25T10:29:34.537Z,5.78
2022-07-25T10:31:39.637Z,5.32
2022-07-25T10:33:42.813Z,5.50
2022-07-25T10:35:45.752Z,5.47
2022-07-25T10:37:51.771Z,6.35
2022-07-25T10:39:53.992Z,6.47
2022-07-25T10:42:02.835Z,6.20
2022-07-25T10:44:11.039Z,5.85
2022-07-25T10:46:18.264Z,6.47
2022-07-25T10:48:31.921Z,6.25
2022-07-25T10:50:54.555Z,6.47
2022-07-25T10:53:00.546Z,6.38
2022-07-25T10:55:02.737Z,6.28
2022-07-25T10:57:06.471Z,6.45
2022-07-25T10:59:08.702Z,6.57
2022-07-25T11:01:11.073Z,6.28
2022-07-25T11:03:17.707Z,6.50
2022-07-25T11:05:20.039Z,7.18
2022-07-25T11:07:21.881Z,8.38
2022-07-25T11:09:27.718Z,7.35
2022-07-25T11:11:50.646Z,7.32
2022-07-25T11:13:58.351Z,8.88
2022-07-25T11:16:01.769Z,6.90
2022-07-25T11:18:08.006Z,8.45
2022-07-25T11:20:11.634Z,7.22
2022-07-25T11:22:16.092Z,6.53
2022-07-25T11:24:18.387Z,9.23
2022-07-25T11:26:20.542Z,7.03
2022-07-25T11:28:22.364Z,6.60
2022-07-25T11:30:25.261Z,6.68
2022-07-25T11:32:27.635Z,6.60
2022-07-25T11:34:32.698Z,6.28
2022-07-25T11:36:35.739Z,6.45
2022-07-25T11:38:39.013Z,5.78
2022-07-25T11:40:44.228Z,6.25
2022-07-25T11:42:52.035Z,8.80
2022-07-25T11:44:54.532Z,6.40
2022-07-25T11:46:56.280Z,7.68
2022-07-25T11:49:06.305Z,6.10
2022-07-25T11:51:18.988Z,6.65
2022-07-25T11:53:21.311Z,6.85
2022-07-25T11:55:29.732Z,7.00
2022-07-25T11:57:34.102Z,6.38
2022-07-25T11:59:42.842Z,6.57
2022-07-25T12:01:45.228Z,7.45
2022-07-25T12:03:47.128Z,6.90
2022-07-25T12:05:49.976Z,6.45
2022-07-25T12:07:53.306Z,5.95
2022-07-25T12:09:58.456Z,6.10
2022-07-25T12:12:04.693Z,6.38
2022-07-25T12:14:07.819Z,6.28
2022-07-25T12:16:09.685Z,6.15
2022-07-25T12:18:12.633Z,6.13
2022-07-25T12:20:19.887Z,5.85
2022-07-25T12:22:21.776Z,7.45
2022-07-25T12:24:25.687Z,6.20
2022-07-25T12:26:27.539Z,5.82
2022-07-25T12:28:30.128Z,5.30
2022-07-25T12:30:32.987Z,5.32
2022-07-25T12:32:35.186Z,5.70
2022-07-25T12:34:36.974Z,6.63
2022-07-25T12:36:43.891Z,5.93
2022-07-25T12:38:47.184Z,6.65
2022-07-25T12:40:49.549Z,6.10
2022-07-25T12:42:51.743Z,6.20
2022-07-25T12:44:53.529Z,5.90
2022-07-25T12:46:55.365Z,5.90
2022-07-25T12:48:57.284Z,6.03
2022-07-25T12:50:59.145Z,6.05
2022-07-25T12:53:01.535Z,6.00
2022-07-25T12:55:04.207Z,6.63
2022-07-25T12:57:06.280Z,6.45
2022-07-25T12:59:08.365Z,6.05
2022-07-25T13:01:10.711Z,5.90
2022-07-25T13:03:13.968Z,4.97
2022-07-25T13:05:15.821Z,5.78
2022-07-25T13:07:17.632Z,4.90
2022-07-25T13:09:19.605Z,4.82
2022-07-25T13:11:21.541Z,4.40
2022-07-25T13:13:23.292Z,5.03
2022-07-25T13:15:28.319Z,5.10
2022-07-25T13:17:31.746Z,5.22
2022-07-25T13:19:33.878Z,5.13
2022-07-25T13:21:36.082Z,5.45
2022-07-25T13:23:37.939Z,5.72
2022-07-25T13:25:39.809Z,6.80
2022-07-25T13:27:41.855Z,5.53
2022-07-25T13:29:43.658Z,5.55
2022-07-25T13:31:47.500Z,7.63
2022-07-25T13:33:49.904Z,6.53
2022-07-25T13:35:52.040Z,5.88
2022-07-25T13:37:54.001Z,5.95
2022-07-25T13:39:56.074Z,5.97
2022-07-25T13:41:57.966Z,5.75
2022-07-25T13:44:00.351Z,7.32
2022-07-25T13:46:02.848Z,6.18
2022-07-25T13:48:28.295Z,6.50
2022-07-25T13:50:27.168Z,5.95
2022-07-25T13:52:29.053Z,7.05
2022-07-25T13:54:30.988Z,10.05
2022-07-25T13:56:33.278Z,6.78
2022-07-25T13:58:35.075Z,6.85
2022-07-25T14:00:36.938Z,4.95
2022-07-25T14:02:38.806Z,6.30
2022-07-25T14:04:41.085Z,5.50
2022-07-25T14:06:43.161Z,3.42
2022-07-25T14:08:45.150Z,7.30
2022-07-25T14:10:47.590Z,4.68
2022-07-25T14:12:49.912Z,4.00
2022-07-25T14:14:51.788Z,3.78
2022-07-25T14:16:53.650Z,4.35
2022-07-25T14:18:55.924Z,4.85
2022-07-25T14:21:01.356Z,6.30
2022-07-25T14:23:03.457Z,2.88
2022-07-25T14:25:06.521Z,4.13
2022-07-25T14:27:08.353Z,4.93
2022-07-25T14:29:11.187Z,3.13
2022-07-25T14:31:13.548Z,3.38
2022-07-25T14:33:15.457Z,2.83
2022-07-25T14:35:17.408Z,2.75
2022-07-25T14:37:20.728Z,3.75
2022-07-25T14:39:22.747Z,4.60
2022-07-25T14:41:24.553Z,2.53
2022-07-25T14:43:26.412Z,3.83
2022-07-25T14:45:28.384Z,3.72
2022-07-25T14:47:30.161Z,2.20
2022-07-25T14:49:32.218Z,3.88
2022-07-25T14:51:34.225Z,3.85
2022-07-25T14:53:37.301Z,3.83
2022-07-25T14:55:39.581Z,3.08
2022-07-25T14:57:41.427Z,3.70
2022-07-25T14:59:43.185Z,4.28
2022-07-25T15:01:45.000Z,8.63
2022-07-25T15:03:46.880Z,5.70
2022-07-25T15:05:48.839Z,3.92
2022-07-25T15:07:51.094Z,6.60
2022-07-25T15:09:52.934Z,4.95
2022-07-25T15:11:54.834Z,2.47
2022-07-25T15:13:57.585Z,3.05
2022-07-25T15:15:59.850Z,1.73
2022-07-25T15:18:02.159Z,2.83
2022-07-25T15:20:04.659Z,4.70
2022-07-25T15:22:09.013Z,3.38
2022-07-25T15:24:10.870Z,3.42
2022-07-25T15:26:12.850Z,3.05
2022-07-25T15:28:14.953Z,4.68
2022-07-25T15:30:16.850Z,2.33
2022-07-25T15:32:18.935Z,2.30
2022-07-25T15:34:20.767Z,2.92
2022-07-25T15:36:28.822Z,3.60
2022-07-25T15:38:31.343Z,3.47
2022-07-25T15:40:33.214Z,3.85
2022-07-25T15:42:35.472Z,2.55
2022-07-25T15:44:37.298Z,2.88
2022-07-25T15:46:41.468Z,4.05
2022-07-25T15:48:44.773Z,3.25
2022-07-25T15:50:49.312Z,2.80
2022-07-25T15:52:51.103Z,2.30
2022-07-25T15:54:52.990Z,3.47
2022-07-25T15:56:59.269Z,3.80
2022-07-25T15:59:01.261Z,3.22
2022-07-25T16:01:03.483Z,3.38
2022-07-25T16:03:09.469Z,4.25
2022-07-25T16:05:11.288Z,3.60
2022-07-25T16:07:13.255Z,5.20
2022-07-25T16:09:16.538Z,4.75
2022-07-25T16:11:18.323Z,2.67
2022-07-25T16:13:20.092Z,3.70
2022-07-25T16:15:25.169Z,2.85
2022-07-25T16:17:28.685Z,2.70
2022-07-25T16:19:30.672Z,1.90
2022-07-25T16:21:32.556Z,2.80
2022-07-25T16:23:38.991Z,2.43
2022-07-25T16:25:43.672Z,3.10
2022-07-25T16:27:45.529Z,2.93
2022-07-25T16:29:47.381Z,3.30
2022-07-25T16:31:49.277Z,2.83
2022-07-25T16:33:51.167Z,4.00
2022-07-25T16:35:52.964Z,3.70
2022-07-25T16:37:54.886Z,2.53
2022-07-25T16:39:56.728Z,2.20
2022-07-25T16:41:58.915Z,3.97
2022-07-25T16:44:00.753Z,2.83
2022-07-25T16:46:02.656Z,2.77
2022-07-25T16:48:06.803Z,2.57
2022-07-25T16:50:09.151Z,2.33
2022-07-25T16:52:11.236Z,4.23
2022-07-25T16:54:13.261Z,4.90
2022-07-25T16:56:16.326Z,2.30
2022-07-25T16:58:18.186Z,2.67
2022-07-25T17:00:20.853Z,2.17
2022-07-25T17:02:28.895Z,2.00
2022-07-25T17:04:31.323Z,1.90
2022-07-25T17:06:33.295Z,3.40
2022-07-25T17:08:36.377Z,2.90
2022-07-25T17:10:38.231Z,2.70
2022-07-25T17:12:40.067Z,2.03
2022-07-25T17:14:41.843Z,2.00
2022-07-25T17:16:44.195Z,2.30
2022-07-25T17:18:46.428Z,2.43
2022-07-25T17:20:48.197Z,1.40
2022-07-25T17:22:49.950Z,2.13
2022-07-25T17:24:51.797Z,3.70
2022-07-25T17:26:53.786Z,2.67
2022-07-25T17:28:55.896Z,2.23
2022-07-25T17:30:57.704Z,1.80
2022-07-25T17:32:59.813Z,2.30
2022-07-25T17:35:01.666Z,2.43
2022-07-25T17:37:05.199Z,5.63
2022-07-25T17:39:09.726Z,3.30
2022-07-25T17:41:13.039Z,3.13
2022-07-25T17:43:14.827Z,2.40
2022-07-25T17:45:16.577Z,2.83
2022-07-25T17:47:18.975Z,2.20
2022-07-25T17:49:22.168Z,3.57
2022-07-25T17:51:24.091Z,2.53
2022-07-25T17:53:25.894Z,2.20
2022-07-25T17:55:28.695Z,2.07
2022-07-25T17:57:31.059Z,2.20
2022-07-25T17:59:34.031Z,1.67
2022-07-25T18:01:35.910Z,3.00
2022-07-25T18:03:37.915Z,2.70
2022-07-25T18:05:39.937Z,2.43
2022-07-25T18:07:45.593Z,1.60
2022-07-25T18:09:47.420Z,2.13
2022-07-25T18:11:49.241Z,2.63
2022-07-25T18:13:51.139Z,2.13
2022-07-25T18:15:52.985Z,1.70
2022-07-25T18:17:57.778Z,2.53
2022-07-25T18:20:00.074Z,2.00
2022-07-25T18:22:01.990Z,2.63
2022-07-25T18:24:04.316Z,1.53
2022-07-25T18:26:06.404Z,2.00
2022-07-25T18:28:08.358Z,2.50
2022-07-25T18:30:11.616Z,2.33
2022-07-25T18:32:13.639Z,2.33
2022-07-25T18:34:15.491Z,2.23
2022-07-25T18:36:17.450Z,1.80
2022-07-25T18:38:19.765Z,1.80
2022-07-25T18:40:21.935Z,1.77
2022-07-25T18:42:29.359Z,3.50
2022-07-25T18:44:32.526Z,1.73
2022-07-25T18:46:34.632Z,3.23
2022-07-25T18:48:37.433Z,2.60
2022-07-25T18:50:39.380Z,2.40
2022-07-25T18:52:41.277Z,2.23
2022-07-25T18:54:43.063Z,2.43
2022-07-25T18:56:44.837Z,3.27
2022-07-25T18:58:46.618Z,1.80
2022-07-25T19:00:48.446Z,3.23
2022-07-25T19:02:50.582Z,2.77
2022-07-25T19:04:52.822Z,2.53
2022-07-25T19:06:55.016Z,2.53
2022-07-25T19:08:56.782Z,2.00
2022-07-25T19:10:58.954Z,2.83
2022-07-25T19:13:01.065Z,2.17
2022-07-25T19:15:03.591Z,2.23
2022-07-25T19:17:05.975Z,2.27
2022-07-25T19:19:09.512Z,4.20
2022-07-25T19:21:11.377Z,2.60
2022-07-25T19:23:13.122Z,2.33
2022-07-25T19:25:17.295Z,1.87
2022-07-25T19:27:19.777Z,1.63
2022-07-25T19:29:21.564Z,2.37
2022-07-25T19:31:23.433Z,2.40
2022-07-25T19:33:25.418Z,3.87
2022-07-25T19:35:37.779Z,2.63
2022-07-25T19:37:39.773Z,2.37
2022-07-25T19:39:41.560Z,2.30
2022-07-25T19:41:47.014Z,2.53
2022-07-25T19:43:49.308Z,2.30
2022-07-25T19:45:51.224Z,2.43
2022-07-25T19:47:53.203Z,2.90
2022-07-25T19:49:55.014Z,2.37
2022-07-25T19:51:56.852Z,3.43
2022-07-25T19:53:59.959Z,2.73
2022-07-25T19:56:01.917Z,1.33
2022-07-25T19:58:03.927Z,1.93
2022-07-25T20:00:06.827Z,2.27
2022-07-25T20:02:13.403Z,1.80
2022-07-25T20:04:16.233Z,1.90
2022-07-25T20:06:20.508Z,2.53
2022-07-25T20:08:22.362Z,1.60
2022-07-25T20:10:24.263Z,2.10
2022-07-25T20:12:26.080Z,3.00
2022-07-25T20:14:27.823Z,2.20
2022-07-25T20:16:29.873Z,2.87
2022-07-25T20:18:32.205Z,2.90
2022-07-25T20:20:34.058Z,4.73
2022-07-25T20:22:38.891Z,2.87
2022-07-25T20:24:40.690Z,3.83
2022-07-25T20:26:42.500Z,2.07
2022-07-25T20:28:45.367Z,3.50
2022-07-25T20:30:47.194Z,1.93
2022-07-25T20:32:49.092Z,3.03
2022-07-25T20:34:52.516Z,4.10
2022-07-25T20:36:54.626Z,3.00
2022-07-25T20:38:56.504Z,2.60
2022-07-25T20:40:59.829Z,1.77
2022-07-25T20:43:01.807Z,2.20
2022-07-25T20:45:07.248Z,1.83
2022-07-25T20:47:09.071Z,2.00
2022-07-25T20:49:12.572Z,2.13
2022-07-25T20:51:16.437Z,3.00
2022-07-25T20:53:19.589Z,3.10
2022-07-25T20:55:22.341Z,3.90
2022-07-25T20:57:24.323Z,1.97
2022-07-25T20:59:26.343Z,2.87
2022-07-25T21:01:28.325Z,2.73
2022-07-25T21:03:31.157Z,3.20
2022-07-25T21:05:33.427Z,3.60
2022-07-25T21:07:36.868Z,2.37
2022-07-25T21:09:39.408Z,2.17
2022-07-25T21:11:41.310Z,2.90
2022-07-25T21:13:43.295Z,2.20
2022-07-25T21:15:45.166Z,2.30
2022-07-25T21:17:47.226Z,2.07
2022-07-25T21:19:49.002Z,2.33
2022-07-25T21:21:50.885Z,1.90
2022-07-25T21:23:53.280Z,2.17
2022-07-25T21:25:55.087Z,2.03
2022-07-25T21:27:56.900Z,2.10
2022-07-25T21:29:58.668Z,2.17
2022-07-25T21:32:00.783Z,2.43
2022-07-25T21:34:02.939Z,4.70
2022-07-25T21:36:05.167Z,2.23
2022-07-25T21:38:07.071Z,2.50
2022-07-25T21:40:09.438Z,2.60
2022-07-25T21:42:11.870Z,2.13
2022-07-25T21:44:13.932Z,3.37
2022-07-25T21:46:15.751Z,1.73
2022-07-25T21:48:21.944Z,2.00
2022-07-25T21:50:42.190Z,3.03
2022-07-25T21:52:46.055Z,2.37
2022-07-25T21:54:48.189Z,2.70
2022-07-25T21:56:49.953Z,2.23
2022-07-25T21:58:51.861Z,2.47
2022-07-25T22:00:53.674Z,2.27
2022-07-25T22:02:56.295Z,2.77
2022-07-25T22:04:58.073Z,2.40
2022-07-25T22:06:59.878Z,3.27
2022-07-25T22:09:01.787Z,3.73
2022-07-25T22:11:15.791Z,2.70
2022-07-25T22:13:18.585Z,2.47
2022-07-25T22:15:20.433Z,2.53
2022-07-25T22:17:22.279Z,2.57
2022-07-25T22:19:24.253Z,2.33
2022-07-25T22:21:26.130Z,3.43
2022-07-25T22:23:27.975Z,3.23
2022-07-25T22:25:29.959Z,2.33
2022-07-25T22:27:31.803Z,2.37
2022-07-25T22:29:33.623Z,2.60
2022-07-25T22:31:35.618Z,2.33
2022-07-25T22:33:38.245Z,2.47
2022-07-25T22:35:40.039Z,2.23
2022-07-25T22:37:43.007Z,3.23
2022-07-25T22:39:44.887Z,2.67
2022-07-25T22:41:46.708Z,3.33
2022-07-25T22:43:59.024Z,4.33
2022-07-25T22:46:01.826Z,2.33
2022-07-25T22:48:04.030Z,3.97
2022-07-25T22:50:06.895Z,3.13
2022-07-25T22:52:08.791Z,3.30
2022-07-25T22:54:10.793Z,2.30
2022-07-25T22:56:12.601Z,2.70
2022-07-25T22:58:14.557Z,1.80
2022-07-25T23:00:17.016Z,4.70
2022-07-25T23:02:18.857Z,2.87
2022-07-25T23:04:20.758Z,2.73
2022-07-25T23:06:22.896Z,3.57
2022-07-25T23:08:24.829Z,2.37
2022-07-25T23:10:29.159Z,2.50
2022-07-25T23:12:31.061Z,2.27
2022-07-25T23:14:32.922Z,3.03
2022-07-25T23:16:34.746Z,2.57
2022-07-25T23:18:36.726Z,2.20
2022-07-25T23:20:38.641Z,3.20
2022-07-25T23:22:40.439Z,5.67
2022-07-25T23:24:43.340Z,2.13
2022-07-25T23:26:45.263Z,5.33
2022-07-25T23:28:47.093Z,3.07
2022-07-25T23:30:48.989Z,2.73
2022-07-25T23:32:50.804Z,6.20
2022-07-25T23:34:52.603Z,4.67
2022-07-25T23:36:54.586Z,2.43
2022-07-25T23:38:56.320Z,2.23
2022-07-25T23:40:58.044Z,3.97
2022-07-25T23:42:59.820Z,3.57
2022-07-25T23:45:01.724Z,2.87
2022-07-25T23:47:05.652Z,5.10
2022-07-25T23:49:13.137Z,3.63
2022-07-25T23:51:15.319Z,3.93
2022-07-25T23:53:17.249Z,4.07
2022-07-25T23:55:19.313Z,2.43
2022-07-25T23:57:21.048Z,3.17
2022-07-25T23:59:22.936Z,3.93
